LFRZ/SNR METAR and TAF weather

Enter ICAO airport designator
Station Type Date Time Source
LFRZ METAR 2019/02/16 03:30 UTC NOAA

LFRZ 160330Z AUTO 00000KT 0750 0600 R25/1000U FG VV/// 03/02 Q1025 TEMPO 0200 FG


Station Type Date Time Source
LFRZ Decoded METAR 2019/02/16 03:30 UTC NOAA

St-Nazaire, France (LFRZ) 47-19N 002-10W 4M
Feb 15, 2019 - 10:30 PM EST / 2019.02.16 0330 UTC
Wind: Calm:0
Visibility: less than 1 mile:0
Sky conditions: obscured
Weather: fog
Temperature: 37 F (3 C)
Dew Point: 35 F (2 C)
Relative Humidity: 93%
Pressure (altimeter): 30.27 in. Hg (1025 hPa)
ob: LFRZ 160330Z AUTO 00000KT 0750 0600 R25/1000U FG VV/// 03/02 Q1025 TEMPO 0200 FG
cycle: 3

Station Type Date Time Source
LFRZ TAF 2019/02/15 18:21 UTC NOAA

TAF LFRZ 151700Z 1518/1618 VRB03KT CAVOK
BECMG 1521/1523 2000 BR
TEMPO 1600/1608 0200 FG VV///
BECMG 1609/1611 6000 SCT008


Example: see airport list